sensor_id;sensor_type;location;lat;lon;timestamp;pressure;altitude;pressure_sealevel;temperature;humidity
16613;BME280;8419;52.358;9.752;2023-04-26T00:00:42;100979.00;;;14.05;35.48
16613;BME280;8419;52.358;9.752;2023-04-26T00:03:29;100967.00;;;14.07;35.46
16613;BME280;8419;52.358;9.752;2023-04-26T00:06:14;100972.00;;;14.03;35.53
16613;BME280;8419;52.358;9.752;2023-04-26T00:09:00;100974.00;;;14.08;35.43
16613;BME280;8419;52.358;9.752;2023-04-26T00:11:45;100978.00;;;14.08;35.44
16613;BME280;8419;52.358;9.752;2023-04-26T00:14:31;100982.00;;;14.07;35.42
16613;BME280;8419;52.358;9.752;2023-04-26T00:17:17;100979.00;;;14.02;35.48
16613;BME280;8419;52.358;9.752;2023-04-26T00:20:03;100977.00;;;14.00;35.57
16613;BME280;8419;52.358;9.752;2023-04-26T00:22:53;100975.00;;;14.01;35.52
16613;BME280;8419;52.358;9.752;2023-04-26T00:25:38;100975.00;;;13.98;35.49
16613;BME280;8419;52.358;9.752;2023-04-26T00:28:24;100972.00;;;13.99;35.57
16613;BME280;8419;52.358;9.752;2023-04-26T00:31:15;100967.00;;;13.92;35.67
16613;BME280;8419;52.358;9.752;2023-04-26T00:34:03;100973.00;;;13.73;36.01
16613;BME280;8419;52.358;9.752;2023-04-26T00:36:48;100965.00;;;13.74;36.04
16613;BME280;8419;52.358;9.752;2023-04-26T00:39:34;100970.00;;;13.65;36.15
16613;BME280;8419;52.358;9.752;2023-04-26T00:42:20;100977.00;;;13.75;36.00
16613;BME280;8419;52.358;9.752;2023-04-26T00:45:07;100963.00;;;13.58;36.21
16613;BME280;8419;52.358;9.752;2023-04-26T00:47:53;100968.00;;;13.62;36.16
16613;BME280;8419;52.358;9.752;2023-04-26T00:50:38;100972.00;;;13.62;36.18
16613;BME280;8419;52.358;9.752;2023-04-26T00:53:24;100970.00;;;13.71;35.94
16613;BME280;8419;52.358;9.752;2023-04-26T00:56:11;100966.00;;;13.69;35.95
16613;BME280;8419;52.358;9.752;2023-04-26T00:58:57;100975.00;;;13.60;36.17
16613;BME280;8419;52.358;9.752;2023-04-26T01:01:43;100963.00;;;13.64;36.14
16613;BME280;8419;52.358;9.752;2023-04-26T01:04:29;100967.00;;;13.73;35.98
16613;BME280;8419;52.358;9.752;2023-04-26T01:07:14;100978.00;;;13.67;36.11
16613;BME280;8419;52.358;9.752;2023-04-26T01:10:00;100977.00;;;13.63;36.21
16613;BME280;8419;52.358;9.752;2023-04-26T01:12:49;100974.00;;;13.55;36.38
16613;BME280;8419;52.358;9.752;2023-04-26T01:15:35;100977.00;;;13.53;36.32
16613;BME280;8419;52.358;9.752;2023-04-26T01:18:21;100983.00;;;13.66;36.13
16613;BME280;8419;52.358;9.752;2023-04-26T01:21:08;100991.00;;;13.55;36.30
16613;BME280;8419;52.358;9.752;2023-04-26T01:23:55;100985.00;;;13.58;36.29
16613;BME280;8419;52.358;9.752;2023-04-26T01:26:41;100982.00;;;13.63;36.15
16613;BME280;8419;52.358;9.752;2023-04-26T01:29:32;100985.00;;;13.65;36.14
16613;BME280;8419;52.358;9.752;2023-04-26T01:32:18;100988.00;;;13.60;36.18
16613;BME280;8419;52.358;9.752;2023-04-26T01:35:04;100982.00;;;13.63;36.09
16613;BME280;8419;52.358;9.752;2023-04-26T01:37:50;101001.00;;;13.58;36.19
16613;BME280;8419;52.358;9.752;2023-04-26T01:40:35;100996.00;;;13.72;35.96
16613;BME280;8419;52.358;9.752;2023-04-26T01:43:20;100990.00;;;13.66;36.08
16613;BME280;8419;52.358;9.752;2023-04-26T01:46:07;100995.00;;;13.61;36.17
16613;BME280;8419;52.358;9.752;2023-04-26T01:48:52;101000.00;;;13.62;36.15
16613;BME280;8419;52.358;9.752;2023-04-26T01:51:38;100990.00;;;13.61;36.13
16613;BME280;8419;52.358;9.752;2023-04-26T01:54:24;101002.00;;;13.62;36.13
16613;BME280;8419;52.358;9.752;2023-04-26T01:57:09;100993.00;;;13.57;36.20
16613;BME280;8419;52.358;9.752;2023-04-26T01:59:57;100999.00;;;13.57;36.20
16613;BME280;8419;52.358;9.752;2023-04-26T02:02:46;101003.00;;;13.34;36.67
16613;BME280;8419;52.358;9.752;2023-04-26T02:05:33;100998.00;;;13.31;36.65
16613;BME280;8419;52.358;9.752;2023-04-26T02:08:19;100995.00;;;13.30;36.72
16613;BME280;8419;52.358;9.752;2023-04-26T02:11:05;100993.00;;;13.25;36.72
16613;BME280;8419;52.358;9.752;2023-04-26T02:13:50;100996.00;;;13.24;36.77
16613;BME280;8419;52.358;9.752;2023-04-26T02:16:36;100992.00;;;13.25;36.69
16613;BME280;8419;52.358;9.752;2023-04-26T02:19:25;100997.00;;;13.21;36.77
16613;BME280;8419;52.358;9.752;2023-04-26T02:22:11;100998.00;;;13.22;36.69
16613;BME280;8419;52.358;9.752;2023-04-26T02:24:57;100990.00;;;13.17;36.83
16613;BME280;8419;52.358;9.752;2023-04-26T02:27:43;100997.00;;;13.15;36.82
16613;BME280;8419;52.358;9.752;2023-04-26T02:30:28;100995.00;;;13.11;36.91
16613;BME280;8419;52.358;9.752;2023-04-26T02:33:14;100995.00;;;13.09;37.00
16613;BME280;8419;52.358;9.752;2023-04-26T02:36:03;101002.00;;;13.09;36.94
16613;BME280;8419;52.358;9.752;2023-04-26T02:38:49;100999.00;;;13.08;37.01
16613;BME280;8419;52.358;9.752;2023-04-26T02:41:35;101000.00;;;13.01;37.09
16613;BME280;8419;52.358;9.752;2023-04-26T02:44:22;101000.00;;;13.03;37.06
16613;BME280;8419;52.358;9.752;2023-04-26T02:47:10;101008.00;;;13.18;36.82
16613;BME280;8419;52.358;9.752;2023-04-26T02:49:58;101011.00;;;13.08;36.99
16613;BME280;8419;52.358;9.752;2023-04-26T02:52:43;101008.00;;;13.04;37.09
16613;BME280;8419;52.358;9.752;2023-04-26T02:55:29;101000.00;;;13.03;37.08
16613;BME280;8419;52.358;9.752;2023-04-26T02:58:15;101000.00;;;13.01;37.13
16613;BME280;8419;52.358;9.752;2023-04-26T03:01:02;101006.00;;;13.01;37.15
16613;BME280;8419;52.358;9.752;2023-04-26T03:03:48;100997.00;;;12.99;37.13
16613;BME280;8419;52.358;9.752;2023-04-26T03:06:34;100995.00;;;13.01;37.13
16613;BME280;8419;52.358;9.752;2023-04-26T03:09:19;100996.00;;;12.99;37.19
16613;BME280;8419;52.358;9.752;2023-04-26T03:12:06;100997.00;;;12.98;37.13
16613;BME280;8419;52.358;9.752;2023-04-26T03:14:52;100998.00;;;12.91;37.35
16613;BME280;8419;52.358;9.752;2023-04-26T03:17:37;101006.00;;;12.89;37.30
16613;BME280;8419;52.358;9.752;2023-04-26T03:20:23;101004.00;;;12.89;37.35
16613;BME280;8419;52.358;9.752;2023-04-26T03:23:09;101001.00;;;12.92;37.31
16613;BME280;8419;52.358;9.752;2023-04-26T03:25:55;101001.00;;;12.83;37.48
16613;BME280;8419;52.358;9.752;2023-04-26T03:28:41;101006.00;;;12.83;37.47
16613;BME280;8419;52.358;9.752;2023-04-26T03:31:26;101000.00;;;12.79;37.63
16613;BME280;8419;52.358;9.752;2023-04-26T03:34:12;101000.00;;;12.79;37.63
16613;BME280;8419;52.358;9.752;2023-04-26T03:36:58;100996.00;;;12.80;37.61
16613;BME280;8419;52.358;9.752;2023-04-26T03:39:43;100993.00;;;12.81;37.71
16613;BME280;8419;52.358;9.752;2023-04-26T03:42:29;100987.00;;;12.84;37.65
16613;BME280;8419;52.358;9.752;2023-04-26T03:45:14;100992.00;;;12.84;37.66
16613;BME280;8419;52.358;9.752;2023-04-26T03:48:00;100995.00;;;12.84;37.61
16613;BME280;8419;52.358;9.752;2023-04-26T03:50:46;100992.00;;;12.85;37.62
16613;BME280;8419;52.358;9.752;2023-04-26T03:53:32;101001.00;;;12.83;37.71
16613;BME280;8419;52.358;9.752;2023-04-26T03:56:17;100996.00;;;12.88;37.61
16613;BME280;8419;52.358;9.752;2023-04-26T03:59:03;101005.00;;;12.88;37.60
16613;BME280;8419;52.358;9.752;2023-04-26T04:01:49;101008.00;;;12.87;37.56
16613;BME280;8419;52.358;9.752;2023-04-26T04:04:34;100996.00;;;12.89;37.56
16613;BME280;8419;52.358;9.752;2023-04-26T04:07:21;101001.00;;;12.91;37.62
16613;BME280;8419;52.358;9.752;2023-04-26T04:10:08;100998.00;;;12.91;37.68
16613;BME280;8419;52.358;9.752;2023-04-26T04:12:54;100998.00;;;12.95;37.65
16613;BME280;8419;52.358;9.752;2023-04-26T04:15:40;101002.00;;;13.03;37.52
16613;BME280;8419;52.358;9.752;2023-04-26T04:18:26;101004.00;;;13.07;37.53
16613;BME280;8419;52.358;9.752;2023-04-26T04:21:11;101005.00;;;13.10;37.48
16613;BME280;8419;52.358;9.752;2023-04-26T04:23:56;100996.00;;;13.11;37.46
16613;BME280;8419;52.358;9.752;2023-04-26T04:26:43;101002.00;;;13.12;37.47
16613;BME280;8419;52.358;9.752;2023-04-26T04:29:28;101004.00;;;13.17;37.44
16613;BME280;8419;52.358;9.752;2023-04-26T04:32:16;101011.00;;;13.23;37.37
16613;BME280;8419;52.358;9.752;2023-04-26T04:35:04;101008.00;;;13.34;37.27
16613;BME280;8419;52.358;9.752;2023-04-26T04:37:50;101013.00;;;13.44;37.19
16613;BME280;8419;52.358;9.752;2023-04-26T04:40:36;101018.00;;;13.45;37.28
16613;BME280;8419;52.358;9.752;2023-04-26T04:43:21;101015.00;;;13.54;37.14
16613;BME280;8419;52.358;9.752;2023-04-26T04:46:07;101023.00;;;13.58;37.11
16613;BME280;8419;52.358;9.752;2023-04-26T04:48:53;101015.00;;;13.57;37.16
16613;BME280;8419;52.358;9.752;2023-04-26T04:51:39;101020.00;;;13.63;37.11
16613;BME280;8419;52.358;9.752;2023-04-26T04:54:24;101027.00;;;13.71;37.03
16613;BME280;8419;52.358;9.752;2023-04-26T04:57:11;101023.00;;;13.74;36.98
16613;BME280;8419;52.358;9.752;2023-04-26T04:59:57;101021.00;;;13.73;36.99
16613;BME280;8419;52.358;9.752;2023-04-26T05:02:43;101022.00;;;13.71;37.02
16613;BME280;8419;52.358;9.752;2023-04-26T05:05:29;101021.00;;;13.67;37.02
16613;BME280;8419;52.358;9.752;2023-04-26T05:08:18;101020.00;;;13.69;37.00
16613;BME280;8419;52.358;9.752;2023-04-26T05:11:04;101033.00;;;13.66;37.00
16613;BME280;8419;52.358;9.752;2023-04-26T05:13:49;101031.00;;;13.60;37.12
16613;BME280;8419;52.358;9.752;2023-04-26T05:16:35;101031.00;;;13.54;37.17
16613;BME280;8419;52.358;9.752;2023-04-26T05:19:20;101032.00;;;13.61;37.13
16613;BME280;8419;52.358;9.752;2023-04-26T05:22:06;101034.00;;;13.50;37.21
16613;BME280;8419;52.358;9.752;2023-04-26T05:24:52;101037.00;;;13.53;37.17
16613;BME280;8419;52.358;9.752;2023-04-26T05:27:37;101034.00;;;13.46;37.27
16613;BME280;8419;52.358;9.752;2023-04-26T05:30:23;101042.00;;;13.45;37.34
16613;BME280;8419;52.358;9.752;2023-04-26T05:33:08;101051.00;;;13.44;37.33
16613;BME280;8419;52.358;9.752;2023-04-26T05:35:55;101051.00;;;13.49;37.26
16613;BME280;8419;52.358;9.752;2023-04-26T05:38:42;101047.00;;;13.54;37.17
16613;BME280;8419;52.358;9.752;2023-04-26T05:41:28;101043.00;;;13.58;37.16
16613;BME280;8419;52.358;9.752;2023-04-26T05:44:14;101049.00;;;13.55;37.22
16613;BME280;8419;52.358;9.752;2023-04-26T05:47:00;101053.00;;;13.56;37.23
16613;BME280;8419;52.358;9.752;2023-04-26T05:49:45;101051.00;;;13.59;37.21
16613;BME280;8419;52.358;9.752;2023-04-26T05:52:31;101056.00;;;13.61;37.23
16613;BME280;8419;52.358;9.752;2023-04-26T05:55:16;101058.00;;;13.70;37.13
16613;BME280;8419;52.358;9.752;2023-04-26T05:58:04;101057.00;;;13.69;37.14
16613;BME280;8419;52.358;9.752;2023-04-26T06:00:50;101057.00;;;13.76;37.06
16613;BME280;8419;52.358;9.752;2023-04-26T06:03:36;101050.00;;;13.78;37.05
16613;BME280;8419;52.358;9.752;2023-04-26T06:06:22;101054.00;;;13.90;36.95
16613;BME280;8419;52.358;9.752;2023-04-26T06:09:08;101056.00;;;13.91;36.93
16613;BME280;8419;52.358;9.752;2023-04-26T06:11:53;101061.00;;;13.94;36.90
16613;BME280;8419;52.358;9.752;2023-04-26T06:14:39;101061.00;;;13.94;36.98
16613;BME280;8419;52.358;9.752;2023-04-26T06:17:25;101061.00;;;14.03;36.80
16613;BME280;8419;52.358;9.752;2023-04-26T06:20:10;101056.00;;;14.10;36.72
16613;BME280;8419;52.358;9.752;2023-04-26T06:22:57;101061.00;;;14.22;36.62
16613;BME280;8419;52.358;9.752;2023-04-26T06:25:42;101054.00;;;14.31;36.48
16613;BME280;8419;52.358;9.752;2023-04-26T06:28:29;101059.00;;;14.33;36.54
16613;BME280;8419;52.358;9.752;2023-04-26T06:31:15;101065.00;;;14.53;36.35
16613;BME280;8419;52.358;9.752;2023-04-26T06:34:00;101061.00;;;14.71;36.20
16613;BME280;8419;52.358;9.752;2023-04-26T06:36:47;101070.00;;;14.90;35.98
16613;BME280;8419;52.358;9.752;2023-04-26T06:39:32;101074.00;;;15.12;35.75
16613;BME280;8419;52.358;9.752;2023-04-26T06:42:18;101068.00;;;15.24;35.58
16613;BME280;8419;52.358;9.752;2023-04-26T06:45:08;101084.00;;;15.32;35.38
16613;BME280;8419;52.358;9.752;2023-04-26T06:47:53;101080.00;;;15.34;35.35
16613;BME280;8419;52.358;9.752;2023-04-26T06:50:39;101074.00;;;15.24;35.38
16613;BME280;8419;52.358;9.752;2023-04-26T06:53:25;101076.00;;;15.10;35.52
16613;BME280;8419;52.358;9.752;2023-04-26T06:56:11;101072.00;;;15.14;35.45
16613;BME280;8419;52.358;9.752;2023-04-26T06:59:01;101072.00;;;15.11;35.36
16613;BME280;8419;52.358;9.752;2023-04-26T07:01:48;101079.00;;;15.27;35.21
16613;BME280;8419;52.358;9.752;2023-04-26T07:04:33;101078.00;;;15.36;35.12
16613;BME280;8419;52.358;9.752;2023-04-26T07:07:19;101078.00;;;15.49;35.06
16613;BME280;8419;52.358;9.752;2023-04-26T07:10:07;101086.00;;;15.72;34.86
16613;BME280;8419;52.358;9.752;2023-04-26T07:12:53;101084.00;;;15.80;34.64
16613;BME280;8419;52.358;9.752;2023-04-26T07:15:39;101084.00;;;15.84;34.65
16613;BME280;8419;52.358;9.752;2023-04-26T07:18:26;101084.00;;;15.77;34.68
16613;BME280;8419;52.358;9.752;2023-04-26T07:21:12;101094.00;;;15.75;34.61
16613;BME280;8419;52.358;9.752;2023-04-26T07:23:58;101096.00;;;15.70;34.45
16613;BME280;8419;52.358;9.752;2023-04-26T07:26:45;101100.00;;;15.60;34.59
16613;BME280;8419;52.358;9.752;2023-04-26T07:29:31;101101.00;;;15.56;34.65
16613;BME280;8419;52.358;9.752;2023-04-26T07:32:18;101088.00;;;15.55;34.51
16613;BME280;8419;52.358;9.752;2023-04-26T07:35:06;101087.00;;;15.57;34.60
16613;BME280;8419;52.358;9.752;2023-04-26T07:37:51;101085.00;;;15.66;34.55
16613;BME280;8419;52.358;9.752;2023-04-26T07:40:37;101095.00;;;15.78;34.39
16613;BME280;8419;52.358;9.752;2023-04-26T07:43:22;101098.00;;;15.86;34.29
16613;BME280;8419;52.358;9.752;2023-04-26T07:46:08;101092.00;;;16.01;34.03
16613;BME280;8419;52.358;9.752;2023-04-26T07:48:53;101090.00;;;16.16;33.87
16613;BME280;8419;52.358;9.752;2023-04-26T07:51:40;101090.00;;;16.20;33.77
16613;BME280;8419;52.358;9.752;2023-04-26T07:54:27;101085.00;;;16.26;33.62
16613;BME280;8419;52.358;9.752;2023-04-26T07:57:13;101088.00;;;16.30;33.47
16613;BME280;8419;52.358;9.752;2023-04-26T07:59:59;101082.00;;;16.32;33.53
16613;BME280;8419;52.358;9.752;2023-04-26T08:02:44;101093.00;;;16.38;33.36
16613;BME280;8419;52.358;9.752;2023-04-26T08:05:30;101098.00;;;16.58;33.23
16613;BME280;8419;52.358;9.752;2023-04-26T08:08:16;101092.00;;;16.91;32.74
16613;BME280;8419;52.358;9.752;2023-04-26T08:11:06;101083.00;;;17.10;32.48
16613;BME280;8419;52.358;9.752;2023-04-26T08:13:53;101081.00;;;17.03;32.32
16613;BME280;8419;52.358;9.752;2023-04-26T08:16:39;101091.00;;;16.99;32.46
16613;BME280;8419;52.358;9.752;2023-04-26T08:19:25;101100.00;;;17.04;32.43
16613;BME280;8419;52.358;9.752;2023-04-26T08:22:15;101095.00;;;17.23;31.75
16613;BME280;8419;52.358;9.752;2023-04-26T08:25:01;101093.00;;;17.22;31.46
16613;BME280;8419;52.358;9.752;2023-04-26T08:28:00;101097.00;;;17.21;31.54
16613;BME280;8419;52.358;9.752;2023-04-26T08:31:08;101093.00;;;17.30;31.59
16613;BME280;8419;52.358;9.752;2023-04-26T08:33:53;101092.00;;;17.66;30.97
16613;BME280;8419;52.358;9.752;2023-04-26T08:36:40;101089.00;;;17.78;30.72
16613;BME280;8419;52.358;9.752;2023-04-26T08:39:25;101081.00;;;17.82;30.75
16613;BME280;8419;52.358;9.752;2023-04-26T08:42:14;101090.00;;;18.12;30.35
16613;BME280;8419;52.358;9.752;2023-04-26T08:45:01;101089.00;;;18.26;29.75
16613;BME280;8419;52.358;9.752;2023-04-26T08:47:49;101098.00;;;18.21;29.38
16613;BME280;8419;52.358;9.752;2023-04-26T08:50:36;101094.00;;;18.21;29.22
16613;BME280;8419;52.358;9.752;2023-04-26T08:53:22;101101.00;;;18.15;29.25
16613;BME280;8419;52.358;9.752;2023-04-26T08:56:10;101097.00;;;18.13;28.88
16613;BME280;8419;52.358;9.752;2023-04-26T08:58:58;101102.00;;;18.04;28.86
16613;BME280;8419;52.358;9.752;2023-04-26T09:01:44;101092.00;;;17.87;28.80
16613;BME280;8419;52.358;9.752;2023-04-26T09:04:30;101098.00;;;17.87;28.93
16613;BME280;8419;52.358;9.752;2023-04-26T09:07:20;101091.00;;;17.88;28.85
16613;BME280;8419;52.358;9.752;2023-04-26T09:10:08;101102.00;;;17.99;28.62
16613;BME280;8419;52.358;9.752;2023-04-26T09:12:54;101102.00;;;18.04;28.45
16613;BME280;8419;52.358;9.752;2023-04-26T09:15:40;101096.00;;;18.22;28.36
16613;BME280;8419;52.358;9.752;2023-04-26T09:18:28;101096.00;;;18.35;28.13
16613;BME280;8419;52.358;9.752;2023-04-26T09:21:15;101104.00;;;18.43;28.07
16613;BME280;8419;52.358;9.752;2023-04-26T09:24:03;101091.00;;;18.54;27.85
16613;BME280;8419;52.358;9.752;2023-04-26T09:27:00;101094.00;;;18.83;27.49
16613;BME280;8419;52.358;9.752;2023-04-26T09:33:06;101091.00;;;19.04;26.76
16613;BME280;8419;52.358;9.752;2023-04-26T09:35:53;101092.00;;;18.74;26.79
16613;BME280;8419;52.358;9.752;2023-04-26T09:38:41;101096.00;;;18.70;26.86
16613;BME280;8419;52.358;9.752;2023-04-26T09:41:42;101096.00;;;18.79;26.76
16613;BME280;8419;52.358;9.752;2023-04-26T09:44:29;101094.00;;;18.94;26.63
16613;BME280;8419;52.358;9.752;2023-04-26T09:47:15;101087.00;;;19.22;26.23
16613;BME280;8419;52.358;9.752;2023-04-26T09:50:01;101100.00;;;19.49;25.64
16613;BME280;8419;52.358;9.752;2023-04-26T09:52:47;101088.00;;;19.76;25.44
16613;BME280;8419;52.358;9.752;2023-04-26T09:55:32;101089.00;;;19.81;25.29
16613;BME280;8419;52.358;9.752;2023-04-26T09:58:18;101086.00;;;19.80;25.33
16613;BME280;8419;52.358;9.752;2023-04-26T10:01:04;101102.00;;;19.71;25.26
16613;BME280;8419;52.358;9.752;2023-04-26T10:03:51;101094.00;;;19.67;24.75
16613;BME280;8419;52.358;9.752;2023-04-26T10:06:37;101096.00;;;19.72;24.88
16613;BME280;8419;52.358;9.752;2023-04-26T10:09:22;101107.00;;;19.78;25.01
16613;BME280;8419;52.358;9.752;2023-04-26T10:12:10;101104.00;;;19.70;25.05
16613;BME280;8419;52.358;9.752;2023-04-26T10:14:56;101105.00;;;19.48;25.03
16613;BME280;8419;52.358;9.752;2023-04-26T10:17:42;101098.00;;;19.33;25.28
16613;BME280;8419;52.358;9.752;2023-04-26T10:20:28;101093.00;;;19.36;25.44
16613;BME280;8419;52.358;9.752;2023-04-26T10:23:17;101105.00;;;19.58;25.37
16613;BME280;8419;52.358;9.752;2023-04-26T10:26:05;101103.00;;;19.66;24.96
16613;BME280;8419;52.358;9.752;2023-04-26T10:28:55;101094.00;;;19.61;24.61
16613;BME280;8419;52.358;9.752;2023-04-26T10:32:06;101103.00;;;19.66;24.73
16613;BME280;8419;52.358;9.752;2023-04-26T10:35:12;101095.00;;;19.81;24.59
16613;BME280;8419;52.358;9.752;2023-04-26T10:38:10;101095.00;;;20.10;24.60
16613;BME280;8419;52.358;9.752;2023-04-26T10:44:38;101097.00;;;20.04;24.70
16613;BME280;8419;52.358;9.752;2023-04-26T10:47:27;101095.00;;;19.93;24.83
16613;BME280;8419;52.358;9.752;2023-04-26T10:50:17;101095.00;;;19.90;25.00
16613;BME280;8419;52.358;9.752;2023-04-26T10:53:05;101101.00;;;19.83;24.94
16613;BME280;8419;52.358;9.752;2023-04-26T10:55:51;101089.00;;;19.77;25.06
16613;BME280;8419;52.358;9.752;2023-04-26T10:58:40;101095.00;;;19.77;25.08
16613;BME280;8419;52.358;9.752;2023-04-26T11:01:25;101084.00;;;20.00;24.91
16613;BME280;8419;52.358;9.752;2023-04-26T11:04:11;101084.00;;;20.25;24.59
16613;BME280;8419;52.358;9.752;2023-04-26T11:07:02;101081.00;;;20.52;24.45
16613;BME280;8419;52.358;9.752;2023-04-26T11:09:49;101073.00;;;20.67;24.23
16613;BME280;8419;52.358;9.752;2023-04-26T11:12:41;101080.00;;;20.65;24.15
16613;BME280;8419;52.358;9.752;2023-04-26T11:15:26;101071.00;;;20.46;23.44
16613;BME280;8419;52.358;9.752;2023-04-26T11:18:13;101083.00;;;20.50;23.45
16613;BME280;8419;52.358;9.752;2023-04-26T11:21:04;101072.00;;;20.63;23.08
16613;BME280;8419;52.358;9.752;2023-04-26T11:23:55;101083.00;;;20.76;22.92
16613;BME280;8419;52.358;9.752;2023-04-26T11:26:40;101073.00;;;20.81;22.78
16613;BME280;8419;52.358;9.752;2023-04-26T11:29:26;101083.00;;;20.98;22.85
16613;BME280;8419;52.358;9.752;2023-04-26T11:32:12;101076.00;;;21.23;22.58
16613;BME280;8419;52.358;9.752;2023-04-26T11:35:00;101078.00;;;21.26;22.29
16613;BME280;8419;52.358;9.752;2023-04-26T11:37:47;101084.00;;;21.37;22.13
16613;BME280;8419;52.358;9.752;2023-04-26T11:40:33;101073.00;;;21.27;22.05
16613;BME280;8419;52.358;9.752;2023-04-26T11:43:21;101071.00;;;21.29;22.24
16613;BME280;8419;52.358;9.752;2023-04-26T11:46:10;101071.00;;;21.20;22.12
16613;BME280;8419;52.358;9.752;2023-04-26T11:48:56;101076.00;;;21.05;22.21
16613;BME280;8419;52.358;9.752;2023-04-26T11:51:43;101069.00;;;21.08;22.42
16613;BME280;8419;52.358;9.752;2023-04-26T11:54:29;101084.00;;;21.55;22.07
16613;BME280;8419;52.358;9.752;2023-04-26T11:57:25;101070.00;;;21.67;21.63
16613;BME280;8419;52.358;9.752;2023-04-26T12:00:17;101073.00;;;21.80;21.58
16613;BME280;8419;52.358;9.752;2023-04-26T12:03:08;101086.00;;;22.30;20.97
16613;BME280;8419;52.358;9.752;2023-04-26T12:05:55;101062.00;;;22.22;21.03
16613;BME280;8419;52.358;9.752;2023-04-26T12:08:40;101071.00;;;22.11;21.06
16613;BME280;8419;52.358;9.752;2023-04-26T12:11:26;101081.00;;;22.30;21.16
16613;BME280;8419;52.358;9.752;2023-04-26T12:14:16;101079.00;;;22.47;20.79
16613;BME280;8419;52.358;9.752;2023-04-26T12:17:02;101073.00;;;22.27;20.84
16613;BME280;8419;52.358;9.752;2023-04-26T12:19:53;101082.00;;;22.39;20.89
16613;BME280;8419;52.358;9.752;2023-04-26T12:22:39;101071.00;;;22.45;20.62
16613;BME280;8419;52.358;9.752;2023-04-26T12:25:25;101085.00;;;22.18;20.22
16613;BME280;8419;52.358;9.752;2023-04-26T12:28:12;101083.00;;;22.25;20.19
16613;BME280;8419;52.358;9.752;2023-04-26T12:30:57;101076.00;;;22.56;19.85
16613;BME280;8419;52.358;9.752;2023-04-26T12:33:44;101071.00;;;22.61;19.96
16613;BME280;8419;52.358;9.752;2023-04-26T12:36:30;101064.00;;;22.26;20.08
16613;BME280;8419;52.358;9.752;2023-04-26T12:39:16;101077.00;;;21.81;20.48
16613;BME280;8419;52.358;9.752;2023-04-26T12:42:04;101075.00;;;21.40;20.85
16613;BME280;8419;52.358;9.752;2023-04-26T12:44:50;101076.00;;;21.10;21.22
16613;BME280;8419;52.358;9.752;2023-04-26T12:47:36;101075.00;;;20.82;21.46
16613;BME280;8419;52.358;9.752;2023-04-26T12:50:21;101077.00;;;20.80;21.44
16613;BME280;8419;52.358;9.752;2023-04-26T12:53:07;101076.00;;;20.78;21.47
16613;BME280;8419;52.358;9.752;2023-04-26T12:55:55;101084.00;;;20.70;21.56
16613;BME280;8419;52.358;9.752;2023-04-26T12:58:40;101093.00;;;20.69;21.75
16613;BME280;8419;52.358;9.752;2023-04-26T13:01:26;101080.00;;;20.60;21.81
16613;BME280;8419;52.358;9.752;2023-04-26T13:04:11;101080.00;;;20.22;21.88
16613;BME280;8419;52.358;9.752;2023-04-26T13:06:57;101083.00;;;20.23;21.91
16613;BME280;8419;52.358;9.752;2023-04-26T13:09:46;101085.00;;;20.10;21.97
16613;BME280;8419;52.358;9.752;2023-04-26T13:12:33;101081.00;;;19.88;22.26
16613;BME280;8419;52.358;9.752;2023-04-26T13:15:19;101088.00;;;19.96;22.34
16613;BME280;8419;52.358;9.752;2023-04-26T13:18:05;101092.00;;;20.30;22.15
16613;BME280;8419;52.358;9.752;2023-04-26T13:20:51;101088.00;;;20.56;21.77
16613;BME280;8419;52.358;9.752;2023-04-26T13:23:36;101090.00;;;20.75;21.49
16613;BME280;8419;52.358;9.752;2023-04-26T13:26:23;101086.00;;;20.74;21.41
16613;BME280;8419;52.358;9.752;2023-04-26T13:29:09;101084.00;;;20.70;21.34
16613;BME280;8419;52.358;9.752;2023-04-26T13:31:57;101097.00;;;20.52;21.46
16613;BME280;8419;52.358;9.752;2023-04-26T13:34:50;101083.00;;;20.37;21.42
16613;BME280;8419;52.358;9.752;2023-04-26T13:37:37;101084.00;;;20.09;21.73
16613;BME280;8419;52.358;9.752;2023-04-26T13:40:22;101087.00;;;20.08;21.79
16613;BME280;8419;52.358;9.752;2023-04-26T13:43:08;101088.00;;;19.94;22.08
16613;BME280;8419;52.358;9.752;2023-04-26T13:45:56;101091.00;;;19.90;22.29
16613;BME280;8419;52.358;9.752;2023-04-26T13:48:44;101090.00;;;19.89;22.47
16613;BME280;8419;52.358;9.752;2023-04-26T13:51:29;101095.00;;;19.92;22.60
16613;BME280;8419;52.358;9.752;2023-04-26T13:54:24;101102.00;;;20.01;22.58
16613;BME280;8419;52.358;9.752;2023-04-26T13:57:10;101092.00;;;19.95;22.75
16613;BME280;8419;52.358;9.752;2023-04-26T13:59:55;101092.00;;;20.03;22.74
16613;BME280;8419;52.358;9.752;2023-04-26T14:02:42;101094.00;;;20.53;22.43
16613;BME280;8419;52.358;9.752;2023-04-26T14:05:27;101096.00;;;20.74;22.29
16613;BME280;8419;52.358;9.752;2023-04-26T14:08:22;101091.00;;;20.90;22.10
16613;BME280;8419;52.358;9.752;2023-04-26T14:11:08;101098.00;;;20.77;22.20
16613;BME280;8419;52.358;9.752;2023-04-26T14:13:55;101108.00;;;20.54;22.41
16613;BME280;8419;52.358;9.752;2023-04-26T14:16:41;101103.00;;;20.38;22.60
16613;BME280;8419;52.358;9.752;2023-04-26T14:19:27;101102.00;;;20.36;22.69
16613;BME280;8419;52.358;9.752;2023-04-26T14:22:13;101104.00;;;20.37;22.73
16613;BME280;8419;52.358;9.752;2023-04-26T14:25:01;101105.00;;;20.31;22.79
16613;BME280;8419;52.358;9.752;2023-04-26T14:27:47;101107.00;;;20.29;22.82
16613;BME280;8419;52.358;9.752;2023-04-26T14:30:35;101104.00;;;20.50;22.82
16613;BME280;8419;52.358;9.752;2023-04-26T14:33:22;101105.00;;;22.04;21.71
16613;BME280;8419;52.358;9.752;2023-04-26T14:36:08;101098.00;;;23.75;20.40
16613;BME280;8419;52.358;9.752;2023-04-26T14:38:54;101105.00;;;24.07;20.04
16613;BME280;8419;52.358;9.752;2023-04-26T14:42:02;101102.00;;;23.83;20.38
16613;BME280;8419;52.358;9.752;2023-04-26T14:44:52;101100.00;;;22.97;20.83
16613;BME280;8419;52.358;9.752;2023-04-26T14:47:37;101095.00;;;22.40;21.14
16613;BME280;8419;52.358;9.752;2023-04-26T14:50:26;101104.00;;;22.01;21.51